BKPR Airport Information

Runway Information
Runway 17 Length 8165 ft width 148 ft
Elevation 1789 ft Threshold 0 ft Heading 176
Runway 35 Length 8165 ft Width 148 ft
Elevation 1786 ft Threshold 0 ft Heading 356
Airport Frequencies
Type APP Name APP Frequency 118.775 MHZ
Type GND Name GND Frequency 118 MHZ
Type RMP Name RAMP OPR Frequency 136.8 MHZ
Type TWR Name TWR Frequency 120.125 MHZ
Airport Navaids
Airport Weather Information & NOTAM
ADDS - METARS form results

(1914 UTC 18 July 2019)
Data provider http://aviationweather.gov/metar/data/
 
METAR text: BKPR 181900Z VRB03KT CAVOK 22/12 Q1014 NOSIG
Conditions at: BKPR (PRISHTINA , CS) observed 1900 UTC 18 July 2019
Temperature: 22.0°C (72°F)
Dewpoint: 12.0°C (54°F) [RH = 53%]
Pressure (altimeter): 29.94 inches Hg (1014.0 mb)
Winds: variable direction winds at 3 MPH (3 knots; 1.5 m/s)
Visibility: 6 or more miles (10+ km)
Ceiling: ceiling and visibility are OK
Clouds: unknown
Weather: no significant weather observed at this time

METAR text: BKPR 181830Z 34007KT 9999 FEW080 23/11 Q1014 NOSIG
Conditions at: BKPR (PRISHTINA , CS) observed 1830 UTC 18 July 2019
Temperature: 23.0°C (73°F)
Dewpoint: 11.0°C (52°F) [RH = 47%]
Pressure (altimeter): 29.94 inches Hg (1014.0 mb)
Winds: from the NNW (340 degrees) at 8 MPH (7 knots; 3.6 m/s)
Visibility: 6 or more miles (10+ km)
Ceiling: at least 12,000 feet AGL
Clouds: few clouds at 8000 feet AGL
Weather: no significant weather observed at this time

Forecast for: BKPR (PRISHTINA , CS)
Text: TAF BKPR 181730Z 1818/1918 VRB03KT 9999 FEW050
Forecast period: 1800 UTC 18 July 2019 to 1800 UTC 19 July 2019
Forecast type: FROM: standard forecast or significant change
Winds: variable direction winds at 3 MPH (3 knots; 1.5 m/s)
Visibility: 6 or more miles 10+ km)
Ceiling: at least 12,000 feet AGL
Clouds: few clouds at 5000 feet AGL
Weather: no significant weather forecast for this period
Text: TEMPO 1911/1918 5000 -TSRA SCT025CB
Forecast period: 1100 to 1800 UTC 19 July 2019
Forecast type: TEMPORARY: The following changes expected for less than half the time period
Visibility: 3 miles (5 km)
Ceiling: at least 12,000 feet AGL
Clouds: scattered clouds at 2500 feet AGL
Weather: -TSRA  (light rain associated with thunderstorm(s))